createdAt,value
2023-08-17T00:00:23.396Z,100025.00
2023-08-17T00:02:51.642Z,100030.16
2023-08-17T00:05:20.105Z,100029.69
2023-08-17T00:07:48.340Z,100033.72
2023-08-17T00:10:16.275Z,100032.66
2023-08-17T00:12:45.713Z,100023.56
2023-08-17T00:15:13.464Z,100033.22
2023-08-17T00:17:41.513Z,100032.44
2023-08-17T00:20:10.856Z,100024.31
2023-08-17T00:22:38.861Z,100023.84
2023-08-17T00:25:07.546Z,100021.91
2023-08-17T00:27:35.474Z,100027.63
2023-08-17T00:30:05.055Z,100024.38
2023-08-17T00:32:32.990Z,100030.25
2023-08-17T00:35:00.662Z,100029.09
2023-08-17T00:37:30.426Z,100028.09
2023-08-17T00:39:58.155Z,100028.00
2023-08-17T00:42:26.469Z,100034.50
2023-08-17T00:44:54.173Z,100026.44
2023-08-17T00:47:23.480Z,100031.03
2023-08-17T00:49:51.759Z,100028.09
2023-08-17T00:52:19.636Z,100024.09
2023-08-17T00:54:48.092Z,100023.50
2023-08-17T00:57:16.283Z,100022.22
2023-08-17T00:59:49.704Z,100024.31
2023-08-17T01:02:25.221Z,100019.41
2023-08-17T01:04:54.142Z,100020.81
2023-08-17T01:07:21.975Z,100014.81
2023-08-17T01:09:50.007Z,100011.31
2023-08-17T01:12:25.607Z,100011.31
2023-08-17T01:15:03.285Z,100009.09
2023-08-17T01:17:38.844Z,100005.81
2023-08-17T01:20:10.778Z,100006.63
2023-08-17T01:22:40.559Z,100006.69
2023-08-17T01:25:10.646Z,100001.00
2023-08-17T01:27:41.943Z,99994.53
2023-08-17T01:30:14.996Z,99990.19
2023-08-17T01:32:50.169Z,99999.59
2023-08-17T01:35:27.714Z,100002.25
2023-08-17T01:37:57.756Z,100000.59
2023-08-17T01:40:29.884Z,100000.34
2023-08-17T01:42:58.531Z,99999.19
2023-08-17T01:45:27.591Z,99989.78
2023-08-17T01:47:56.855Z,99959.59
2023-08-17T01:50:24.823Z,99982.47
2023-08-17T01:52:52.508Z,99983.06
2023-08-17T01:55:23.368Z,99978.56
2023-08-17T01:57:52.375Z,99981.63
2023-08-17T02:00:20.670Z,99990.09
2023-08-17T02:02:48.298Z,99993.78
2023-08-17T02:05:16.299Z,99989.56
2023-08-17T02:07:47.400Z,99989.97
2023-08-17T02:10:16.392Z,99988.38
2023-08-17T02:12:44.050Z,99984.63
2023-08-17T02:15:13.276Z,99982.38
2023-08-17T02:17:41.186Z,99982.50
2023-08-17T02:20:12.010Z,99978.50
2023-08-17T02:22:40.077Z,99987.69
2023-08-17T02:25:09.026Z,99936.34
2023-08-17T02:27:37.342Z,99974.34
2023-08-17T02:30:06.266Z,99975.13
2023-08-17T02:32:35.850Z,99974.53
2023-08-17T02:35:03.624Z,99971.25
2023-08-17T02:37:31.445Z,99968.25
2023-08-17T02:39:59.533Z,99973.00
2023-08-17T02:42:27.501Z,99969.56
2023-08-17T02:44:55.593Z,99963.00
2023-08-17T02:47:23.853Z,99970.72
2023-08-17T02:49:53.277Z,99962.66
2023-08-17T02:52:21.563Z,99970.94
2023-08-17T02:54:49.220Z,99982.41
2023-08-17T02:57:23.539Z,99979.75
2023-08-17T02:59:51.713Z,99987.31
2023-08-17T03:02:19.654Z,99982.75
2023-08-17T03:04:47.418Z,99991.56
2023-08-17T03:07:16.896Z,99987.84
2023-08-17T03:09:44.808Z,99978.50
2023-08-17T03:12:13.995Z,99977.78
2023-08-17T03:14:41.899Z,99976.09
2023-08-17T03:17:09.890Z,99975.44
2023-08-17T03:19:37.812Z,99972.66
2023-08-17T03:22:05.688Z,99973.31
2023-08-17T03:24:35.127Z,99918.56
2023-08-17T03:27:02.983Z,99965.66
2023-08-17T03:29:31.175Z,99966.06
2023-08-17T03:31:59.115Z,99968.44
2023-08-17T03:34:27.247Z,99968.94
2023-08-17T03:36:54.946Z,99976.22
2023-08-17T03:39:23.806Z,99977.47
2023-08-17T03:41:53.135Z,99981.94
2023-08-17T03:44:22.005Z,99988.56
2023-08-17T03:46:50.163Z,99991.66
2023-08-17T03:49:17.819Z,99982.00
2023-08-17T03:51:45.870Z,99983.09
2023-08-17T03:54:14.592Z,99987.31
2023-08-17T03:56:43.270Z,99987.06
2023-08-17T03:59:12.282Z,99992.09
2023-08-17T04:01:40.055Z,99984.13
2023-08-17T04:04:07.827Z,99989.69
2023-08-17T04:06:37.167Z,99989.59
2023-08-17T04:09:05.312Z,99996.38
2023-08-17T04:11:33.359Z,99991.00
2023-08-17T04:14:01.103Z,99999.13
2023-08-17T04:16:30.418Z,99995.28
2023-08-17T04:18:58.272Z,99987.16
2023-08-17T04:21:26.304Z,99999.81
2023-08-17T04:23:53.969Z,99999.00
2023-08-17T04:26:21.972Z,99988.84
2023-08-17T04:28:49.693Z,100003.66
2023-08-17T04:31:18.624Z,100002.00
2023-08-17T04:33:51.854Z,100005.41
2023-08-17T04:36:19.577Z,100015.66
2023-08-17T04:38:47.267Z,100018.22
2023-08-17T04:41:15.372Z,100013.34
2023-08-17T04:43:44.048Z,100013.56
2023-08-17T04:46:11.951Z,100012.25
2023-08-17T04:48:40.798Z,100023.50
2023-08-17T04:51:10.723Z,100019.13
2023-08-17T04:53:38.622Z,100022.81
2023-08-17T04:56:06.756Z,100026.81
2023-08-17T04:58:34.483Z,100023.47
2023-08-17T05:01:02.392Z,100022.59
2023-08-17T05:03:33.715Z,100024.19
2023-08-17T05:06:02.868Z,100019.41
2023-08-17T05:08:31.940Z,100018.41
2023-08-17T05:10:59.666Z,100026.56
2023-08-17T05:13:28.183Z,100025.47
2023-08-17T05:15:59.171Z,100034.59
2023-08-17T05:18:27.259Z,100029.88
2023-08-17T05:20:55.727Z,100033.19
2023-08-17T05:23:23.557Z,100035.72
2023-08-17T05:25:55.682Z,100035.13
2023-08-17T05:28:23.647Z,100036.91
2023-08-17T05:30:51.741Z,100031.53
2023-08-17T05:33:19.765Z,100038.03
2023-08-17T05:35:47.736Z,100031.63
2023-08-17T05:38:15.871Z,100044.97
2023-08-17T05:40:43.540Z,100042.56
2023-08-17T05:43:13.670Z,100043.53
2023-08-17T05:45:41.442Z,100051.66
2023-08-17T05:48:09.285Z,100048.94
2023-08-17T05:50:37.069Z,100056.97
2023-08-17T05:53:05.571Z,100065.00
2023-08-17T05:55:33.280Z,100062.31
2023-08-17T05:58:01.176Z,100056.63
2023-08-17T06:00:30.342Z,100062.38
2023-08-17T06:03:02.556Z,100059.56
2023-08-17T06:05:30.742Z,100059.56
2023-08-17T06:07:58.743Z,100061.03
2023-08-17T06:10:27.082Z,100064.78
2023-08-17T06:12:55.539Z,100058.94
2023-08-17T06:15:24.118Z,100048.22
2023-08-17T06:17:53.629Z,100067.75
2023-08-17T06:20:21.523Z,100058.69
2023-08-17T06:22:50.641Z,100056.09
2023-08-17T06:25:18.360Z,100055.50
2023-08-17T06:27:46.400Z,100061.13
2023-08-17T06:30:14.620Z,100052.84
2023-08-17T06:32:42.615Z,100057.88
2023-08-17T06:35:11.962Z,100060.09
2023-08-17T06:37:39.671Z,100054.91
2023-08-17T06:40:10.418Z,100061.66
2023-08-17T06:42:38.115Z,100051.56
2023-08-17T06:45:07.287Z,100059.09
2023-08-17T06:47:35.011Z,100058.84
2023-08-17T06:50:02.879Z,100047.28
2023-08-17T06:52:31.926Z,100059.50
2023-08-17T06:54:59.868Z,100063.88
2023-08-17T06:57:27.998Z,100060.44
2023-08-17T06:59:56.200Z,100063.41
2023-08-17T07:02:23.956Z,100055.59
2023-08-17T07:04:52.049Z,100052.13
2023-08-17T07:07:19.752Z,100061.25
2023-08-17T07:09:49.038Z,100064.25
2023-08-17T07:12:16.771Z,100067.75
2023-08-17T07:14:44.600Z,100080.31
2023-08-17T07:17:12.333Z,100086.16
2023-08-17T07:20:00.021Z,100090.22
2023-08-17T07:22:27.866Z,100086.00
2023-08-17T07:24:58.353Z,100096.19
2023-08-17T07:27:26.417Z,100088.38
2023-08-17T07:29:54.875Z,100081.16
2023-08-17T07:32:22.859Z,100079.88
2023-08-17T07:34:51.046Z,100080.09
2023-08-17T07:37:18.743Z,100074.72
2023-08-17T07:39:46.646Z,100080.38
2023-08-17T07:42:15.812Z,100073.91
2023-08-17T07:44:44.119Z,100078.50
2023-08-17T07:47:11.855Z,100083.38
2023-08-17T07:49:39.751Z,100083.66
2023-08-17T07:52:07.539Z,100079.09
2023-08-17T07:54:36.177Z,100072.56
2023-08-17T07:57:04.558Z,100077.72
2023-08-17T07:59:36.273Z,100084.47
2023-08-17T08:02:03.925Z,100082.84
2023-08-17T08:04:31.994Z,100086.09
2023-08-17T08:06:59.653Z,100070.84
2023-08-17T08:09:27.347Z,100073.56
2023-08-17T08:11:55.404Z,100075.53
2023-08-17T08:14:23.118Z,100069.78
2023-08-17T08:16:53.444Z,100060.00
2023-08-17T08:19:21.122Z,100065.63
2023-08-17T08:21:48.834Z,100069.09
2023-08-17T08:24:26.367Z,100074.25
2023-08-17T08:26:59.075Z,100080.03
2023-08-17T08:29:26.802Z,100079.50
2023-08-17T08:31:56.245Z,100080.88
2023-08-17T08:34:23.984Z,100077.47
2023-08-17T08:36:51.749Z,100075.91
2023-08-17T08:39:19.597Z,100077.53
2023-08-17T08:41:47.388Z,100044.81
2023-08-17T08:44:15.360Z,100071.94
2023-08-17T08:46:46.520Z,100073.09
2023-08-17T08:49:21.652Z,100062.00
2023-08-17T08:51:52.734Z,100069.47
2023-08-17T08:54:24.365Z,100070.78
2023-08-17T08:56:56.547Z,100063.56
2023-08-17T08:59:26.333Z,100067.28
2023-08-17T09:01:54.039Z,100068.81
2023-08-17T09:04:23.553Z,100064.94
2023-08-17T09:06:52.649Z,100071.91
2023-08-17T09:09:20.769Z,100069.28
2023-08-17T09:11:48.485Z,100065.22
2023-08-17T09:14:16.241Z,100057.44
2023-08-17T09:16:44.298Z,100057.69
2023-08-17T09:19:12.295Z,100051.09
2023-08-17T09:21:41.713Z,100060.25
2023-08-17T09:24:09.995Z,100054.09
2023-08-17T09:26:39.021Z,100047.38
2023-08-17T09:29:18.770Z,100052.81
2023-08-17T09:31:46.920Z,100047.31
2023-08-17T09:34:16.651Z,100051.66
2023-08-17T09:36:48.707Z,100041.75
2023-08-17T09:39:17.990Z,100040.66
2023-08-17T09:41:46.204Z,100047.13
2023-08-17T09:44:14.192Z,100052.06
2023-08-17T09:46:45.018Z,100040.41
2023-08-17T09:49:13.092Z,100044.25
2023-08-17T09:51:45.856Z,100042.06
2023-08-17T09:54:24.320Z,100038.84
2023-08-17T09:56:53.271Z,100047.84
2023-08-17T09:59:21.985Z,100043.66
2023-08-17T10:01:56.708Z,100043.75
2023-08-17T10:04:26.038Z,100049.78
2023-08-17T10:07:00.300Z,100042.56
2023-08-17T10:09:33.568Z,100044.56
2023-08-17T10:12:07.685Z,100053.44
2023-08-17T10:14:42.553Z,100046.38
2023-08-17T10:17:13.993Z,100033.16
2023-08-17T10:19:46.053Z,100038.44
2023-08-17T10:22:20.727Z,100034.28
2023-08-17T10:24:49.520Z,100039.25
2023-08-17T10:27:18.981Z,100044.00
2023-08-17T10:29:47.628Z,100033.88
2023-08-17T10:32:17.149Z,100041.41
2023-08-17T10:34:46.929Z,100034.00
2023-08-17T10:37:17.283Z,100033.09
2023-08-17T10:39:48.139Z,100033.91
2023-08-17T10:42:20.808Z,100035.94
2023-08-17T10:44:50.459Z,100025.91
2023-08-17T10:47:22.810Z,100020.03
2023-08-17T10:49:51.665Z,100031.38
2023-08-17T10:52:29.256Z,100027.97
2023-08-17T10:54:57.829Z,100032.88
2023-08-17T10:57:33.545Z,100027.72
2023-08-17T11:00:21.981Z,100021.81
2023-08-17T11:02:57.828Z,100021.97
2023-08-17T11:05:43.112Z,100027.03
2023-08-17T11:08:21.729Z,100013.56
2023-08-17T11:10:51.680Z,100035.66
2023-08-17T11:13:19.560Z,100034.31
2023-08-17T11:15:49.344Z,100034.19
2023-08-17T11:18:17.527Z,100026.00
2023-08-17T11:20:45.740Z,100037.41
2023-08-17T11:23:16.079Z,100031.31
2023-08-17T11:25:44.844Z,100040.50
2023-08-17T11:28:14.817Z,100031.19
2023-08-17T11:33:15.876Z,100029.41
2023-08-17T11:35:43.806Z,100023.28
2023-08-17T11:38:11.747Z,100023.38
2023-08-17T11:40:40.804Z,99957.78
2023-08-17T11:43:09.997Z,100009.72
2023-08-17T11:45:38.138Z,100013.94
2023-08-17T11:48:06.713Z,100016.03
2023-08-17T11:50:39.869Z,100012.00
2023-08-17T11:53:08.348Z,100012.13
2023-08-17T11:55:36.197Z,100014.66
2023-08-17T11:58:09.847Z,100020.59
2023-08-17T12:00:38.968Z,100022.97
2023-08-17T12:03:07.061Z,100026.97
2023-08-17T12:05:35.594Z,100021.41
2023-08-17T12:08:04.131Z,100019.91
2023-08-17T12:10:33.967Z,100031.59
2023-08-17T12:13:01.781Z,100039.00
2023-08-17T12:15:34.939Z,100042.84
2023-08-17T12:18:05.859Z,100036.84
2023-08-17T12:20:36.883Z,100040.41
2023-08-17T12:23:05.396Z,100046.53
2023-08-17T12:25:33.537Z,100049.16
2023-08-17T12:28:02.161Z,100049.22
2023-08-17T12:30:32.880Z,100051.94
2023-08-17T12:33:01.973Z,100061.00
2023-08-17T12:35:30.012Z,100069.47
2023-08-17T12:37:57.717Z,100062.38
2023-08-17T12:40:25.773Z,100067.25
2023-08-17T12:42:53.461Z,100060.53
2023-08-17T12:45:21.642Z,100051.16
2023-08-17T12:47:49.671Z,100055.63
2023-08-17T12:50:19.889Z,100058.66
2023-08-17T12:52:47.754Z,100058.66
2023-08-17T12:55:15.816Z,100056.16
2023-08-17T12:57:43.513Z,100049.25
2023-08-17T13:00:12.442Z,100032.94
2023-08-17T13:02:40.383Z,100032.44
2023-08-17T13:05:08.843Z,100046.09
2023-08-17T13:07:37.943Z,100039.97
2023-08-17T13:10:06.750Z,100040.91
2023-08-17T13:12:34.511Z,100033.34
2023-08-17T13:15:02.456Z,100024.34
2023-08-17T13:17:30.419Z,100018.91
2023-08-17T13:19:58.258Z,100010.00
2023-08-17T13:22:26.410Z,100004.75
2023-08-17T13:24:55.624Z,99990.53
2023-08-17T13:27:23.330Z,99981.88
2023-08-17T13:29:51.061Z,99973.84
2023-08-17T13:32:18.986Z,99981.03
2023-08-17T13:34:46.822Z,99968.34
2023-08-17T13:37:14.813Z,99958.34
2023-08-17T13:39:42.512Z,99946.19
2023-08-17T13:42:11.899Z,99943.69
2023-08-17T13:44:39.913Z,99940.88
2023-08-17T13:47:07.693Z,99941.69
2023-08-17T13:49:35.496Z,99938.38
2023-08-17T13:52:03.393Z,99928.00
2023-08-17T13:54:31.206Z,99911.34
2023-08-17T13:56:59.214Z,99906.28
2023-08-17T13:59:28.261Z,99905.59
2023-08-17T14:01:57.330Z,99896.91
2023-08-17T14:04:25.145Z,99906.75
2023-08-17T14:06:53.564Z,99907.84
2023-08-17T14:09:21.341Z,99906.31
2023-08-17T14:11:49.091Z,99904.63
2023-08-17T14:14:17.133Z,99898.94
2023-08-17T14:16:46.277Z,99903.63
2023-08-17T14:19:13.994Z,99902.53
2023-08-17T14:21:42.076Z,99896.00
2023-08-17T14:24:10.678Z,99900.59
2023-08-17T14:26:38.970Z,99897.09
2023-08-17T14:29:06.610Z,99893.75
2023-08-17T14:31:34.329Z,99886.69
2023-08-17T14:34:06.423Z,99887.81
2023-08-17T14:36:34.220Z,99886.66
2023-08-17T14:39:02.401Z,99883.78
2023-08-17T14:41:33.289Z,99870.38
2023-08-17T14:44:03.424Z,99862.31
2023-08-17T14:46:31.731Z,99850.22
2023-08-17T14:48:59.895Z,99858.22
2023-08-17T14:51:31.869Z,99845.31
2023-08-17T14:54:00.205Z,99850.50
2023-08-17T14:56:27.822Z,99845.41
2023-08-17T14:58:56.048Z,99842.28
2023-08-17T15:01:23.800Z,99848.91
2023-08-17T15:03:51.808Z,99846.22
2023-08-17T15:06:32.245Z,99832.81
2023-08-17T15:09:04.289Z,99827.84
2023-08-17T15:11:32.095Z,99832.09
2023-08-17T15:14:00.034Z,99832.88
2023-08-17T15:16:29.170Z,99834.94
2023-08-17T15:18:57.088Z,99833.97
2023-08-17T15:21:25.121Z,99839.63
2023-08-17T15:23:52.834Z,99833.34
2023-08-17T15:26:22.094Z,99831.09
2023-08-17T15:28:49.775Z,99833.13
2023-08-17T15:31:18.120Z,99821.88
2023-08-17T15:33:45.991Z,99822.72
2023-08-17T15:36:14.079Z,99825.59
2023-08-17T15:38:41.814Z,99826.16
2023-08-17T15:41:10.277Z,99830.34
2023-08-17T15:43:39.321Z,99833.91
2023-08-17T15:46:07.797Z,99830.25
2023-08-17T15:48:35.609Z,99827.94
2023-08-17T15:51:03.718Z,99836.03
2023-08-17T15:53:31.578Z,99838.94
2023-08-17T15:55:59.355Z,99845.34
2023-08-17T15:58:27.102Z,99851.06
2023-08-17T16:00:56.414Z,99851.53
2023-08-17T16:03:24.379Z,99846.44
2023-08-17T16:05:52.320Z,99840.25
2023-08-17T16:08:22.625Z,99830.31
2023-08-17T16:10:54.859Z,99840.00
2023-08-17T16:13:22.753Z,99836.63
2023-08-17T16:15:53.202Z,99844.25
2023-08-17T16:18:23.165Z,99845.06
2023-08-17T16:20:50.870Z,99839.91
2023-08-17T16:23:22.342Z,99834.09
2023-08-17T16:25:50.692Z,99837.44
2023-08-17T16:28:18.634Z,99836.16
2023-08-17T16:30:46.375Z,99835.59
2023-08-17T16:33:16.386Z,99852.44
2023-08-17T16:35:45.566Z,99848.38
2023-08-17T16:38:13.559Z,99859.22
2023-08-17T16:40:41.295Z,99871.69
2023-08-17T16:43:09.004Z,99872.00
2023-08-17T16:45:36.747Z,99878.16
2023-08-17T16:48:05.136Z,99874.75
2023-08-17T16:50:33.767Z,99880.09
2023-08-17T16:53:03.378Z,99875.84
2023-08-17T16:55:31.134Z,99875.19
2023-08-17T16:57:59.097Z,99892.09
2023-08-17T17:00:26.759Z,99886.66
2023-08-17T17:02:54.817Z,99897.00
2023-08-17T17:05:22.612Z,99906.28
2023-08-17T17:07:50.381Z,99897.06
2023-08-17T17:10:21.217Z,99899.25
2023-08-17T17:12:49.110Z,99893.78
2023-08-17T17:15:17.389Z,99886.03
2023-08-17T17:17:45.215Z,99890.69
2023-08-17T17:20:14.333Z,99886.84
2023-08-17T17:22:42.016Z,99879.38
2023-08-17T17:25:10.562Z,99881.81
2023-08-17T17:27:41.066Z,99872.72
2023-08-17T17:30:10.299Z,99871.34
2023-08-17T17:32:38.238Z,99856.03
2023-08-17T17:35:06.933Z,99857.28
2023-08-17T17:37:34.845Z,99861.22
2023-08-17T17:40:02.496Z,99859.22
2023-08-17T17:42:30.139Z,99862.84
2023-08-17T17:44:59.739Z,99859.53
2023-08-17T17:47:27.992Z,99854.56
2023-08-17T17:49:56.153Z,99852.75
2023-08-17T17:52:27.940Z,99815.28
2023-08-17T17:54:56.044Z,99859.97
2023-08-17T17:57:23.810Z,99861.88
2023-08-17T17:59:52.393Z,99853.28
2023-08-17T18:02:26.744Z,99860.19
2023-08-17T18:04:54.536Z,99854.63
2023-08-17T18:07:22.242Z,99860.47
2023-08-17T18:09:50.243Z,99859.50
2023-08-17T18:12:17.892Z,99857.78
2023-08-17T18:14:46.111Z,99860.94
2023-08-17T18:17:13.880Z,99870.44
2023-08-17T18:19:43.169Z,99876.38
2023-08-17T18:22:10.868Z,99874.88
2023-08-17T18:24:38.782Z,99869.00
2023-08-17T18:27:06.938Z,99874.75
2023-08-17T18:29:35.743Z,99876.69
2023-08-17T18:32:03.470Z,99880.81
2023-08-17T18:34:31.182Z,99879.69
2023-08-17T18:37:00.474Z,99882.34
2023-08-17T18:39:28.133Z,99885.59
2023-08-17T18:41:55.994Z,99888.44
2023-08-17T18:44:23.765Z,99888.25
2023-08-17T18:46:51.708Z,99880.66
2023-08-17T18:49:19.441Z,99882.91
2023-08-17T18:51:47.814Z,99883.13
2023-08-17T18:54:16.911Z,99883.75
2023-08-17T18:56:44.671Z,99884.63
2023-08-17T18:59:12.356Z,99888.81
2023-08-17T19:01:40.455Z,99890.63
2023-08-17T19:04:08.334Z,99889.03
2023-08-17T19:06:36.051Z,99896.63
2023-08-17T19:09:04.503Z,99904.03
2023-08-17T19:11:33.827Z,99910.22
2023-08-17T19:14:03.033Z,99899.31
2023-08-17T19:16:31.240Z,99900.38
2023-08-17T19:18:59.044Z,99901.09
2023-08-17T19:21:26.929Z,99909.88
2023-08-17T19:23:54.631Z,99910.19
2023-08-17T19:26:22.579Z,99919.41
2023-08-17T19:28:51.718Z,99916.69
2023-08-17T19:31:19.629Z,99917.19
2023-08-17T19:33:47.952Z,99917.28
2023-08-17T19:36:15.668Z,99922.50
2023-08-17T19:38:43.596Z,99919.56
2023-08-17T19:41:11.387Z,99922.25
2023-08-17T19:43:39.345Z,99921.44
2023-08-17T19:46:08.446Z,99916.88
2023-08-17T19:48:36.373Z,99919.31
2023-08-17T19:51:04.838Z,99920.72
2023-08-17T19:53:32.628Z,99915.88
2023-08-17T19:56:00.462Z,99922.38
2023-08-17T19:58:28.228Z,99927.72
2023-08-17T20:00:56.378Z,99921.19
2023-08-17T20:03:25.572Z,99924.16
2023-08-17T20:05:57.454Z,99892.03
2023-08-17T20:08:25.349Z,99914.66
2023-08-17T20:10:52.993Z,99920.13
2023-08-17T20:13:20.646Z,99924.75
2023-08-17T20:15:54.292Z,99922.03
2023-08-17T20:18:22.033Z,99920.16
2023-08-17T20:20:56.754Z,99924.53
2023-08-17T20:23:25.204Z,99920.22
2023-08-17T20:25:56.328Z,99920.50
2023-08-17T20:28:25.938Z,99915.34
2023-08-17T20:30:57.359Z,99919.34
2023-08-17T20:33:25.019Z,99921.22
2023-08-17T20:35:55.938Z,99908.50
2023-08-17T20:38:24.663Z,99908.69
2023-08-17T20:40:52.586Z,99920.41
2023-08-17T20:43:20.621Z,99916.34
2023-08-17T20:45:48.448Z,99918.06
2023-08-17T20:48:16.133Z,99916.41
2023-08-17T20:50:46.399Z,99924.53
2023-08-17T20:53:15.996Z,99911.03
2023-08-17T20:55:44.048Z,99910.09
2023-08-17T20:58:11.858Z,99924.41
2023-08-17T21:00:39.595Z,99876.34
2023-08-17T21:03:07.387Z,99919.06
2023-08-17T21:05:35.321Z,99922.09
2023-08-17T21:08:04.141Z,99918.81
2023-08-17T21:10:33.648Z,99919.88
2023-08-17T21:13:01.454Z,99916.09
2023-08-17T21:15:29.228Z,99922.41
2023-08-17T21:17:56.990Z,99919.19
2023-08-17T21:20:25.264Z,99919.72
2023-08-17T21:22:53.410Z,99919.53
2023-08-17T21:25:21.176Z,99914.72
2023-08-17T21:27:50.650Z,99914.72
2023-08-17T21:30:18.549Z,99904.19
2023-08-17T21:32:46.217Z,99898.28
2023-08-17T21:35:14.425Z,99890.47
2023-08-17T21:37:44.358Z,99895.38
2023-08-17T21:40:12.994Z,99891.00
2023-08-17T21:42:40.906Z,99894.84
2023-08-17T21:45:11.140Z,99891.06
2023-08-17T21:47:38.904Z,99891.88
2023-08-17T21:50:07.675Z,99882.38
2023-08-17T21:52:35.577Z,99876.72
2023-08-17T21:55:03.824Z,99874.25
2023-08-17T21:57:31.818Z,99869.94
2023-08-17T21:59:59.999Z,99869.69
2023-08-17T22:02:29.106Z,99869.72
2023-08-17T22:04:57.116Z,99875.97
2023-08-17T22:07:24.877Z,99866.50
2023-08-17T22:09:52.764Z,99863.25
2023-08-17T22:12:20.545Z,99868.41
2023-08-17T22:14:48.872Z,99856.50
2023-08-17T22:17:16.600Z,99850.56
2023-08-17T22:19:45.924Z,99852.47
2023-08-17T22:22:13.566Z,99858.97
2023-08-17T22:24:50.814Z,99865.75
2023-08-17T22:27:19.625Z,99863.59
2023-08-17T22:29:47.552Z,99864.16
2023-08-17T22:32:15.347Z,99864.97
2023-08-17T22:34:43.296Z,99872.00
2023-08-17T22:37:12.315Z,99868.50
2023-08-17T22:39:40.235Z,99873.66
2023-08-17T22:42:07.918Z,99867.97
2023-08-17T22:44:35.688Z,99875.03
2023-08-17T22:47:04.592Z,99863.41
2023-08-17T22:49:32.563Z,99864.75
2023-08-17T22:52:02.086Z,99861.50
2023-08-17T22:54:31.251Z,99863.16
2023-08-17T22:56:58.908Z,99870.19
2023-08-17T22:59:27.354Z,99877.19
2023-08-17T23:01:55.379Z,99887.47
2023-08-17T23:04:23.099Z,99876.94
2023-08-17T23:06:51.201Z,99884.50
2023-08-17T23:09:18.837Z,99879.34
2023-08-17T23:11:48.110Z,99883.16
2023-08-17T23:14:16.166Z,99886.94
2023-08-17T23:16:43.853Z,99881.00
2023-08-17T23:19:11.502Z,99880.75
2023-08-17T23:21:39.643Z,99890.47
2023-08-17T23:24:38.935Z,99883.66
2023-08-17T23:27:08.145Z,99886.94
2023-08-17T23:29:36.240Z,99881.22
2023-08-17T23:32:16.744Z,99888.00
2023-08-17T23:34:54.252Z,99886.69
2023-08-17T23:37:22.025Z,99887.19
2023-08-17T23:39:49.902Z,99882.34
2023-08-17T23:42:19.050Z,99880.47
2023-08-17T23:44:47.092Z,99878.81
2023-08-17T23:47:15.523Z,99887.75
2023-08-17T23:49:43.203Z,99874.50
2023-08-17T23:52:11.108Z,99876.91
2023-08-17T23:54:39.056Z,99871.78
2023-08-17T23:57:08.492Z,99877.44
2023-08-17T23:59:37.551Z,99873.41
